createdAt,value
2019-03-09T00:01:08.507Z,3.30
2019-03-09T00:03:35.402Z,3.20
2019-03-09T00:06:02.238Z,3.07
2019-03-09T00:08:28.929Z,3.43
2019-03-09T00:10:55.468Z,2.83
2019-03-09T00:13:22.009Z,3.70
2019-03-09T00:15:48.490Z,3.67
2019-03-09T00:18:15.608Z,3.67
2019-03-09T00:20:42.193Z,3.50
2019-03-09T00:23:29.373Z,4.20
2019-03-09T00:26:18.419Z,4.23
2019-03-09T00:28:50.947Z,4.60
2019-03-09T00:31:43.023Z,4.03
2019-03-09T00:34:09.546Z,3.87
2019-03-09T00:36:36.448Z,3.33
2019-03-09T00:39:04.338Z,3.77
2019-03-09T00:41:30.859Z,3.67
2019-03-09T00:43:57.667Z,4.07
2019-03-09T00:46:24.263Z,3.53
2019-03-09T00:48:50.788Z,4.13
2019-03-09T00:51:17.430Z,4.00
2019-03-09T00:53:44.220Z,3.90
2019-03-09T00:56:12.310Z,3.90
2019-03-09T00:58:39.057Z,3.77
2019-03-09T01:01:05.958Z,4.60
2019-03-09T01:03:32.456Z,3.50
2019-03-09T01:05:58.953Z,4.20
2019-03-09T01:08:26.055Z,4.03
2019-03-09T01:10:53.162Z,4.73
2019-03-09T01:13:19.972Z,4.43
2019-03-09T01:15:46.771Z,4.33
2019-03-09T01:18:13.698Z,3.80
2019-03-09T01:20:40.367Z,3.67
2019-03-09T01:23:07.139Z,4.30
2019-03-09T01:25:33.987Z,3.50
2019-03-09T01:28:01.519Z,3.30
2019-03-09T01:30:28.365Z,3.77
2019-03-09T01:32:55.192Z,4.23
2019-03-09T01:35:21.996Z,3.53
2019-03-09T01:37:49.040Z,3.43
2019-03-09T01:40:16.093Z,3.23
2019-03-09T01:42:42.899Z,3.53
2019-03-09T01:45:10.393Z,3.50
2019-03-09T01:47:37.231Z,3.70
2019-03-09T01:50:04.463Z,3.73
2019-03-09T01:52:31.292Z,3.33
2019-03-09T01:54:58.213Z,2.70
2019-03-09T01:57:25.052Z,2.90
2019-03-09T01:59:51.830Z,3.40
2019-03-09T02:02:19.002Z,2.80
2019-03-09T02:04:46.034Z,2.17
2019-03-09T02:07:13.923Z,2.60
2019-03-09T02:09:41.004Z,2.97
2019-03-09T02:12:07.845Z,2.67
2019-03-09T02:14:34.723Z,3.03
2019-03-09T02:17:01.251Z,2.30
2019-03-09T02:19:28.907Z,2.43
2019-03-09T02:21:55.427Z,2.07
2019-03-09T02:24:22.086Z,2.20
2019-03-09T02:26:48.909Z,2.40
2019-03-09T02:29:15.453Z,1.90
2019-03-09T02:31:42.104Z,2.20
2019-03-09T02:34:08.842Z,2.20
2019-03-09T02:36:35.345Z,2.10
2019-03-09T02:39:14.822Z,2.33
2019-03-09T02:41:41.586Z,1.70
2019-03-09T02:44:08.182Z,2.17
2019-03-09T02:46:34.840Z,1.87
2019-03-09T02:49:01.622Z,1.87
2019-03-09T02:51:28.213Z,1.50
2019-03-09T02:53:55.768Z,2.20
2019-03-09T02:56:22.485Z,1.80
2019-03-09T02:58:49.025Z,1.70
2019-03-09T03:01:44.216Z,1.83
2019-03-09T03:04:10.696Z,1.97
2019-03-09T03:06:37.171Z,2.10
2019-03-09T03:09:04.758Z,1.83
2019-03-09T03:11:31.189Z,1.70
2019-03-09T03:13:58.359Z,1.90
2019-03-09T03:16:30.037Z,1.73
2019-03-09T03:18:56.909Z,1.67
2019-03-09T03:21:23.698Z,1.73
2019-03-09T03:23:50.226Z,1.87
2019-03-09T03:26:16.963Z,2.37
2019-03-09T03:28:43.893Z,1.73
2019-03-09T03:31:10.439Z,1.70
2019-03-09T03:33:37.005Z,1.43
2019-03-09T03:36:03.626Z,2.20
2019-03-09T03:38:32.411Z,2.10
2019-03-09T03:40:58.986Z,1.80
2019-03-09T03:43:25.586Z,2.47
2019-03-09T03:45:52.350Z,1.67
2019-03-09T03:48:20.187Z,2.13
2019-03-09T03:50:46.864Z,1.70
2019-03-09T03:53:13.310Z,1.60
2019-03-09T03:55:39.916Z,1.73
2019-03-09T03:58:07.608Z,1.77
2019-03-09T04:00:34.230Z,1.90
2019-03-09T04:03:00.724Z,1.80
2019-03-09T04:05:27.234Z,1.50
2019-03-09T04:07:54.431Z,1.40
2019-03-09T04:10:21.422Z,1.33
2019-03-09T04:12:48.121Z,1.60
2019-03-09T04:15:15.090Z,1.87
2019-03-09T04:17:41.805Z,1.77
2019-03-09T04:20:08.640Z,1.90
2019-03-09T04:22:35.273Z,1.60
2019-03-09T04:25:02.269Z,2.10
2019-03-09T04:27:28.852Z,1.60
2019-03-09T04:29:55.594Z,1.57
2019-03-09T04:32:22.220Z,2.07
2019-03-09T04:34:48.851Z,2.17
2019-03-09T04:37:15.447Z,1.90
2019-03-09T04:39:43.210Z,1.73
2019-03-09T04:42:09.898Z,2.27
2019-03-09T04:44:36.809Z,2.10
2019-03-09T04:47:03.592Z,1.70
2019-03-09T04:49:30.343Z,2.00
2019-03-09T04:51:56.961Z,2.10
2019-03-09T04:54:23.600Z,2.00
2019-03-09T04:56:50.608Z,1.50
2019-03-09T04:59:17.528Z,1.80
2019-03-09T05:01:44.241Z,1.23
2019-03-09T05:04:45.450Z,1.67
2019-03-09T05:07:27.431Z,2.03
2019-03-09T05:10:15.708Z,2.70
2019-03-09T05:12:42.686Z,1.80
2019-03-09T05:15:10.116Z,2.03
2019-03-09T05:17:36.927Z,1.87
2019-03-09T05:20:04.208Z,1.47
2019-03-09T05:22:30.993Z,1.37
2019-03-09T05:24:57.590Z,2.03
2019-03-09T05:27:25.044Z,1.57
2019-03-09T05:29:52.288Z,1.50
2019-03-09T05:32:19.128Z,1.37
2019-03-09T05:34:45.767Z,1.30
2019-03-09T05:37:12.293Z,1.60
2019-03-09T05:39:38.912Z,1.70
2019-03-09T05:42:05.481Z,1.40
2019-03-09T05:44:32.582Z,1.30
2019-03-09T05:46:59.542Z,1.40
2019-03-09T05:49:26.127Z,1.03
2019-03-09T05:52:46.239Z,1.23
2019-03-09T05:55:18.048Z,1.10
2019-03-09T05:57:45.990Z,1.03
2019-03-09T06:00:14.993Z,1.10
2019-03-09T06:02:42.766Z,1.30
2019-03-09T06:05:33.420Z,0.80
2019-03-09T06:08:00.819Z,1.00
2019-03-09T06:10:27.788Z,0.77
2019-03-09T06:12:56.353Z,0.70
2019-03-09T06:15:25.135Z,0.87
2019-03-09T06:17:52.271Z,0.63
2019-03-09T06:20:20.075Z,0.80
2019-03-09T06:22:47.852Z,0.70
2019-03-09T06:25:15.437Z,0.90
2019-03-09T06:27:42.740Z,0.70
2019-03-09T06:30:12.219Z,0.70
2019-03-09T06:33:16.670Z,0.73
2019-03-09T06:35:44.692Z,1.60
2019-03-09T06:38:34.851Z,0.80
2019-03-09T06:41:13.723Z,1.00
2019-03-09T06:43:40.564Z,0.50
2019-03-09T06:46:07.633Z,0.70
2019-03-09T06:48:34.910Z,0.77
2019-03-09T06:51:02.236Z,0.80
2019-03-09T06:53:29.512Z,0.70
2019-03-09T06:55:56.417Z,0.60
2019-03-09T06:58:25.489Z,0.80
2019-03-09T07:00:54.210Z,1.00
2019-03-09T07:03:22.364Z,0.47
2019-03-09T07:05:50.659Z,1.73
2019-03-09T07:08:18.924Z,0.60
2019-03-09T07:11:07.722Z,0.47
2019-03-09T07:14:27.998Z,0.40
2019-03-09T07:18:36.814Z,0.40
2019-03-09T07:20:12.935Z,0.70
2019-03-09T07:23:38.600Z,0.63
2019-03-09T07:26:17.023Z,0.40
2019-03-09T07:29:07.620Z,0.50
2019-03-09T07:31:44.114Z,0.70
2019-03-09T07:35:10.040Z,0.57
2019-03-09T07:41:14.901Z,0.37
2019-03-09T07:48:04.681Z,0.50
2019-03-09T07:50:25.885Z,0.80
2019-03-09T07:52:53.199Z,0.80
2019-03-09T07:55:20.040Z,0.63
2019-03-09T07:57:46.878Z,0.63
2019-03-09T08:00:15.651Z,0.70
2019-03-09T08:02:43.752Z,0.50
2019-03-09T08:05:11.567Z,0.50
2019-03-09T08:07:38.553Z,0.40
2019-03-09T08:10:07.561Z,0.73
2019-03-09T08:12:34.565Z,0.50
2019-03-09T08:15:01.591Z,0.47
2019-03-09T08:17:46.571Z,0.60
2019-03-09T08:20:13.600Z,0.30
2019-03-09T08:22:43.855Z,0.50
2019-03-09T08:25:10.958Z,0.80
2019-03-09T08:27:39.222Z,0.50
2019-03-09T08:30:15.127Z,0.33
2019-03-09T08:32:43.210Z,0.40
2019-03-09T08:35:10.962Z,0.40
2019-03-09T08:37:38.091Z,0.60
2019-03-09T08:40:05.600Z,0.40
2019-03-09T08:42:32.503Z,0.20
2019-03-09T08:44:59.565Z,0.70
2019-03-09T08:47:27.655Z,0.40
2019-03-09T08:50:23.027Z,0.50
2019-03-09T08:53:03.648Z,0.40
2019-03-09T08:55:48.736Z,0.63
2019-03-09T08:58:28.441Z,0.40
2019-03-09T09:01:04.856Z,0.60
2019-03-09T09:03:53.436Z,0.30
2019-03-09T09:06:20.905Z,0.47
2019-03-09T09:09:11.712Z,0.60
2019-03-09T09:11:38.390Z,0.50
2019-03-09T09:14:05.002Z,0.60
2019-03-09T09:16:33.801Z,0.60
2019-03-09T09:19:03.527Z,0.63
2019-03-09T09:21:30.216Z,0.60
2019-03-09T09:24:05.891Z,0.53
2019-03-09T09:26:35.786Z,0.70
2019-03-09T09:32:26.917Z,0.70
2019-03-09T09:34:57.205Z,0.80
2019-03-09T09:37:25.206Z,0.50
2019-03-09T09:39:54.152Z,0.57
2019-03-09T09:42:26.234Z,1.00
2019-03-09T09:44:54.783Z,0.97
2019-03-09T09:47:22.866Z,1.00
2019-03-09T09:49:54.519Z,1.03
2019-03-09T09:52:30.792Z,0.73
2019-03-09T09:54:59.924Z,1.00
2019-03-09T09:57:29.929Z,1.00
2019-03-09T10:00:01.806Z,0.77
2019-03-09T10:02:29.852Z,0.97
2019-03-09T10:04:59.532Z,0.87
2019-03-09T10:07:29.266Z,0.80
2019-03-09T10:09:57.672Z,0.90
2019-03-09T10:12:26.115Z,0.83
2019-03-09T10:14:58.492Z,0.80
2019-03-09T10:17:34.608Z,1.17
2019-03-09T10:20:07.904Z,1.07
2019-03-09T10:22:48.979Z,0.80
2019-03-09T10:25:30.723Z,1.57
2019-03-09T10:28:00.387Z,1.07
2019-03-09T10:30:33.182Z,0.70
2019-03-09T10:33:02.739Z,0.80
2019-03-09T10:35:33.988Z,0.90
2019-03-09T10:38:04.568Z,0.90
2019-03-09T10:40:37.714Z,0.97
2019-03-09T10:43:12.914Z,0.80
2019-03-09T10:45:45.188Z,1.27
2019-03-09T10:48:16.085Z,1.10
2019-03-09T10:51:00.099Z,1.00
2019-03-09T10:53:28.782Z,1.20
2019-03-09T10:56:04.506Z,1.17
2019-03-09T10:58:42.185Z,1.07
2019-03-09T11:01:12.483Z,0.90
2019-03-09T11:03:47.880Z,0.90
2019-03-09T11:06:19.733Z,1.17
2019-03-09T11:08:48.231Z,1.10
2019-03-09T11:11:19.582Z,1.30
2019-03-09T11:13:52.229Z,1.30
2019-03-09T11:16:21.585Z,0.93
2019-03-09T11:18:54.957Z,0.90
2019-03-09T11:21:27.154Z,1.23
2019-03-09T11:24:02.959Z,0.80
2019-03-09T11:26:32.463Z,1.07
2019-03-09T11:29:10.134Z,1.10
2019-03-09T11:31:42.403Z,0.90
2019-03-09T11:34:23.835Z,1.07
2019-03-09T11:36:51.324Z,1.13
2019-03-09T11:39:20.568Z,1.30
2019-03-09T11:41:47.626Z,1.20
2019-03-09T11:44:15.511Z,1.00
2019-03-09T11:46:45.485Z,1.03
2019-03-09T11:49:13.834Z,0.80
2019-03-09T11:51:42.007Z,0.60
2019-03-09T11:54:15.703Z,0.63
2019-03-09T11:56:45.907Z,0.90
2019-03-09T11:59:13.379Z,0.83
2019-03-09T12:01:43.447Z,0.67
2019-03-09T12:04:11.524Z,0.60
2019-03-09T12:06:42.386Z,0.80
2019-03-09T12:09:11.792Z,0.90
2019-03-09T12:11:51.570Z,0.60
2019-03-09T12:14:18.716Z,0.70
2019-03-09T12:16:48.270Z,0.60
2019-03-09T12:19:15.260Z,0.40
2019-03-09T12:21:42.224Z,0.90
2019-03-09T12:24:16.457Z,0.80
2019-03-09T12:26:38.030Z,0.70
2019-03-09T12:29:04.882Z,0.67
2019-03-09T12:31:33.680Z,0.70
2019-03-09T12:34:01.738Z,0.60
2019-03-09T12:36:28.862Z,0.60
2019-03-09T12:38:55.841Z,0.80
2019-03-09T12:41:23.509Z,0.67
2019-03-09T12:43:50.396Z,0.80
2019-03-09T12:46:17.176Z,1.00
2019-03-09T12:48:43.937Z,0.90
2019-03-09T12:51:10.906Z,0.60
2019-03-09T12:53:37.914Z,0.80
2019-03-09T12:56:04.971Z,0.87
2019-03-09T12:58:31.787Z,0.80
2019-03-09T13:00:58.671Z,0.90
2019-03-09T13:03:25.515Z,0.70
2019-03-09T13:05:52.965Z,1.37
2019-03-09T13:08:19.466Z,0.90
2019-03-09T13:10:46.262Z,0.80
2019-03-09T13:13:14.253Z,0.93
2019-03-09T13:15:41.195Z,0.90
2019-03-09T13:18:09.872Z,0.70
2019-03-09T13:20:38.872Z,0.63
2019-03-09T13:23:08.093Z,0.93
2019-03-09T13:25:42.454Z,0.70
2019-03-09T13:28:15.241Z,0.73
2019-03-09T13:30:42.672Z,0.90
2019-03-09T13:33:09.546Z,0.77
2019-03-09T13:35:38.432Z,0.80
2019-03-09T13:38:05.151Z,0.40
2019-03-09T13:40:31.853Z,0.80
2019-03-09T13:42:58.572Z,1.13
2019-03-09T13:45:25.766Z,0.80
2019-03-09T13:47:52.633Z,0.93
2019-03-09T13:50:22.441Z,0.70
2019-03-09T13:52:49.265Z,0.60
2019-03-09T13:55:16.332Z,0.60
2019-03-09T13:57:43.157Z,0.50
2019-03-09T14:00:11.099Z,0.53
2019-03-09T14:02:38.158Z,0.70
2019-03-09T14:05:05.301Z,0.67
2019-03-09T14:07:32.144Z,0.40
2019-03-09T14:09:58.971Z,0.63
2019-03-09T14:12:25.580Z,0.63
2019-03-09T14:14:52.249Z,0.80
2019-03-09T14:17:19.314Z,0.40
2019-03-09T14:19:46.157Z,0.67
2019-03-09T14:22:13.067Z,0.87
2019-03-09T14:24:40.062Z,0.70
2019-03-09T14:27:07.609Z,0.70
2019-03-09T14:29:34.356Z,0.70
2019-03-09T14:32:01.094Z,0.70
2019-03-09T14:34:30.018Z,0.60
2019-03-09T14:36:56.829Z,0.57
2019-03-09T14:39:23.420Z,0.80
2019-03-09T14:41:50.404Z,0.80
2019-03-09T14:44:17.138Z,0.70
2019-03-09T14:46:44.142Z,0.83
2019-03-09T14:49:11.132Z,0.80
2019-03-09T14:51:37.912Z,0.83
2019-03-09T14:54:05.084Z,0.90
2019-03-09T14:56:31.892Z,0.87
2019-03-09T14:58:58.938Z,1.10
2019-03-09T15:01:25.864Z,0.90
2019-03-09T15:03:52.611Z,0.87
2019-03-09T15:06:19.539Z,0.73
2019-03-09T15:08:46.397Z,0.70
2019-03-09T15:11:14.280Z,0.97
2019-03-09T15:13:41.314Z,0.70
2019-03-09T15:16:08.810Z,0.67
2019-03-09T15:18:35.426Z,0.70
2019-03-09T15:21:02.394Z,0.60
2019-03-09T15:23:30.151Z,1.00
2019-03-09T15:25:56.891Z,0.87
2019-03-09T15:28:23.450Z,0.70
2019-03-09T15:30:53.422Z,0.90
2019-03-09T15:33:21.768Z,1.03
2019-03-09T15:35:48.990Z,1.00
2019-03-09T15:38:15.689Z,1.10
2019-03-09T15:40:42.870Z,0.70
2019-03-09T15:43:09.700Z,0.80
2019-03-09T15:45:37.532Z,1.03
2019-03-09T15:48:04.515Z,0.60
2019-03-09T15:50:31.854Z,0.60
2019-03-09T15:52:59.017Z,0.80
2019-03-09T15:55:25.724Z,0.80
2019-03-09T15:57:52.450Z,1.00
2019-03-09T16:00:20.273Z,0.80
2019-03-09T16:02:47.130Z,0.70
2019-03-09T16:05:13.858Z,0.57
2019-03-09T16:07:40.679Z,0.47
2019-03-09T16:10:08.937Z,0.60
2019-03-09T16:12:36.480Z,0.60
2019-03-09T16:15:04.608Z,0.50
2019-03-09T16:17:31.849Z,0.73
2019-03-09T16:19:59.448Z,0.80
2019-03-09T16:22:26.054Z,0.60
2019-03-09T16:24:52.935Z,0.90
2019-03-09T16:27:20.603Z,0.63
2019-03-09T16:29:47.898Z,0.50
2019-03-09T16:32:14.808Z,0.83
2019-03-09T16:34:41.452Z,0.60
2019-03-09T16:37:08.645Z,0.77
2019-03-09T16:39:35.372Z,0.50
2019-03-09T16:42:02.300Z,0.50
2019-03-09T16:44:28.980Z,0.50
2019-03-09T16:46:58.706Z,0.53
2019-03-09T16:49:25.715Z,0.30
2019-03-09T16:51:52.278Z,0.43
2019-03-09T16:54:19.044Z,0.57
2019-03-09T16:56:46.291Z,0.50
2019-03-09T16:59:13.413Z,0.40
2019-03-09T17:01:40.042Z,0.40
2019-03-09T17:04:06.712Z,0.60
2019-03-09T17:06:33.433Z,0.83
2019-03-09T17:09:00.151Z,0.90
2019-03-09T17:11:27.135Z,0.60
2019-03-09T17:13:53.833Z,0.70
2019-03-09T17:16:20.514Z,0.63
2019-03-09T17:18:47.217Z,0.67
2019-03-09T17:21:14.049Z,0.70
2019-03-09T17:23:40.994Z,0.63
2019-03-09T17:26:07.687Z,0.90
2019-03-09T17:28:34.380Z,0.60
2019-03-09T17:31:01.102Z,1.27
2019-03-09T17:33:27.712Z,1.20
2019-03-09T17:35:54.646Z,1.00
2019-03-09T17:38:21.300Z,0.80
2019-03-09T17:40:47.871Z,1.40
2019-03-09T17:43:14.399Z,1.33
2019-03-09T17:45:40.903Z,0.83
2019-03-09T17:48:08.797Z,1.17
2019-03-09T17:50:36.354Z,1.27
2019-03-09T17:53:07.254Z,1.07
2019-03-09T17:55:34.960Z,1.20
2019-03-09T17:58:02.606Z,1.30
2019-03-09T18:00:42.027Z,1.50
2019-03-09T18:03:03.663Z,1.33
2019-03-09T18:05:32.383Z,1.73
2019-03-09T18:08:00.071Z,0.67
2019-03-09T18:10:32.719Z,0.70
2019-03-09T18:13:00.678Z,0.80
2019-03-09T18:15:28.870Z,0.83
2019-03-09T18:17:55.688Z,0.97
2019-03-09T18:20:24.271Z,0.80
2019-03-09T18:22:50.930Z,0.70
2019-03-09T18:25:17.482Z,1.10
2019-03-09T18:27:44.102Z,1.40
2019-03-09T18:30:10.979Z,1.00
2019-03-09T18:32:37.630Z,0.90
2019-03-09T18:35:04.645Z,0.70
2019-03-09T18:37:31.705Z,0.60
2019-03-09T18:39:58.418Z,1.07
2019-03-09T18:42:25.114Z,1.53
2019-03-09T18:44:52.160Z,2.47
2019-03-09T18:47:19.189Z,1.00
2019-03-09T18:49:45.800Z,1.00
2019-03-09T18:52:12.541Z,1.17
2019-03-09T18:54:39.117Z,0.90
2019-03-09T18:57:06.333Z,1.70
2019-03-09T18:59:32.934Z,0.97
2019-03-09T19:02:00.817Z,1.00
2019-03-09T19:04:27.352Z,1.10
2019-03-09T19:06:55.095Z,0.60
2019-03-09T19:09:23.300Z,0.90
2019-03-09T19:11:50.026Z,1.33
2019-03-09T19:14:16.673Z,0.90
2019-03-09T19:16:44.224Z,0.82
2019-03-09T19:19:10.907Z,0.60
2019-03-09T19:21:37.531Z,0.83
2019-03-09T19:24:04.299Z,0.90
2019-03-09T19:26:30.913Z,0.93
2019-03-09T19:28:58.649Z,0.73
2019-03-09T19:31:25.386Z,0.80
2019-03-09T19:33:52.273Z,0.97
2019-03-09T19:36:18.827Z,0.90
2019-03-09T19:38:45.937Z,1.10
2019-03-09T19:41:12.465Z,1.10
2019-03-09T19:43:39.086Z,1.00
2019-03-09T19:46:05.775Z,1.20
2019-03-09T19:48:32.683Z,0.80
2019-03-09T19:50:59.439Z,1.00
2019-03-09T19:53:25.973Z,1.00
2019-03-09T19:55:52.633Z,0.70
2019-03-09T19:58:19.728Z,1.40
2019-03-09T20:00:46.316Z,1.07
2019-03-09T20:03:12.959Z,1.07
2019-03-09T20:05:41.568Z,1.26
2019-03-09T20:08:29.529Z,1.27
2019-03-09T20:10:56.690Z,0.77
2019-03-09T20:13:23.334Z,1.10
2019-03-09T20:15:51.979Z,1.00
2019-03-09T20:18:18.517Z,0.83
2019-03-09T20:20:46.160Z,1.30
2019-03-09T20:23:13.016Z,0.90
2019-03-09T20:25:39.831Z,0.73
2019-03-09T20:28:07.038Z,1.33
2019-03-09T20:30:33.647Z,1.70
2019-03-09T20:33:00.540Z,1.17
2019-03-09T20:35:27.244Z,1.67
2019-03-09T20:37:57.475Z,1.10
2019-03-09T20:40:29.000Z,0.90
2019-03-09T20:42:58.268Z,0.90
2019-03-09T20:45:27.459Z,1.23
2019-03-09T20:47:56.220Z,1.00
2019-03-09T20:50:25.809Z,1.03
2019-03-09T20:52:55.663Z,1.17
2019-03-09T20:55:23.899Z,1.47
2019-03-09T20:57:53.109Z,1.07
2019-03-09T21:00:22.045Z,1.50
2019-03-09T21:02:52.076Z,0.90
2019-03-09T21:05:20.633Z,1.23
2019-03-09T21:07:48.290Z,1.27
2019-03-09T21:10:17.959Z,0.93
2019-03-09T21:13:00.649Z,1.20
2019-03-09T21:15:36.021Z,0.83
2019-03-09T21:18:06.822Z,1.67
2019-03-09T21:20:34.379Z,0.93
2019-03-09T21:23:01.465Z,1.33
2019-03-09T21:25:29.727Z,1.17
2019-03-09T21:27:56.547Z,1.10
2019-03-09T21:30:25.885Z,1.13
2019-03-09T21:32:54.758Z,1.47
2019-03-09T21:35:22.778Z,0.80
2019-03-09T21:37:49.357Z,1.10
2019-03-09T21:40:16.382Z,0.90
2019-03-09T21:42:43.206Z,1.00
2019-03-09T21:45:10.069Z,1.40
2019-03-09T21:47:36.878Z,1.57
2019-03-09T21:50:03.936Z,1.07
2019-03-09T21:52:31.619Z,1.83
2019-03-09T21:54:59.508Z,1.30
2019-03-09T21:57:27.315Z,1.63
2019-03-09T21:59:54.075Z,1.20
2019-03-09T22:02:20.684Z,1.00
2019-03-09T22:04:47.654Z,1.27
2019-03-09T22:07:14.591Z,1.20
2019-03-09T22:09:41.616Z,1.07
2019-03-09T22:12:08.389Z,0.90
2019-03-09T22:14:35.047Z,0.80
2019-03-09T22:17:01.605Z,1.10
2019-03-09T22:19:28.272Z,1.00
2019-03-09T22:21:54.853Z,1.30
2019-03-09T22:24:22.458Z,1.10
2019-03-09T22:26:49.582Z,1.40
2019-03-09T22:29:16.368Z,1.33
2019-03-09T22:31:43.110Z,0.93
2019-03-09T22:34:09.683Z,1.60
2019-03-09T22:36:36.508Z,1.27
2019-03-09T22:39:04.298Z,1.10
2019-03-09T22:41:30.813Z,1.13
2019-03-09T22:43:57.842Z,1.67
2019-03-09T22:46:24.718Z,1.30
2019-03-09T22:48:51.254Z,1.20
2019-03-09T22:51:18.076Z,1.40
2019-03-09T22:53:44.613Z,1.53
2019-03-09T22:56:11.224Z,1.53
2019-03-09T22:58:37.877Z,1.47
2019-03-09T23:01:04.703Z,1.93
2019-03-09T23:03:31.741Z,2.07
2019-03-09T23:05:58.368Z,2.27
2019-03-09T23:08:25.170Z,1.87
2019-03-09T23:10:51.788Z,1.50
2019-03-09T23:13:18.360Z,1.30
2019-03-09T23:15:44.977Z,1.37
2019-03-09T23:18:11.520Z,1.53
2019-03-09T23:20:39.533Z,1.50
2019-03-09T23:23:06.374Z,1.77
2019-03-09T23:25:33.147Z,1.70
2019-03-09T23:27:59.769Z,1.53
2019-03-09T23:30:26.305Z,1.90
2019-03-09T23:32:54.088Z,1.37
2019-03-09T23:35:20.848Z,1.73
2019-03-09T23:37:47.798Z,1.77
2019-03-09T23:40:14.618Z,1.87
2019-03-09T23:42:41.176Z,1.63
2019-03-09T23:45:09.227Z,1.80
2019-03-09T23:47:36.198Z,2.30
2019-03-09T23:50:03.241Z,2.40
2019-03-09T23:52:29.945Z,2.80
2019-03-09T23:54:56.553Z,2.07
2019-03-09T23:57:23.125Z,2.00
2019-03-09T23:59:49.860Z,1.83
